createdAt,value
2019-02-12T00:02:18.086Z,1.73
2019-02-12T00:04:46.573Z,1.53
2019-02-12T00:07:15.022Z,1.47
2019-02-12T00:09:43.544Z,1.67
2019-02-12T00:12:11.994Z,0.53
2019-02-12T00:14:40.512Z,1.43
2019-02-12T00:17:09.016Z,2.47
2019-02-12T00:19:38.388Z,2.57
2019-02-12T00:22:07.009Z,3.10
2019-02-12T00:24:35.547Z,2.07
2019-02-12T00:27:04.134Z,1.97
2019-02-12T00:29:32.650Z,1.23
2019-02-12T00:32:01.142Z,0.67
2019-02-12T00:34:29.619Z,3.30
2019-02-12T00:36:58.068Z,4.77
2019-02-12T00:39:27.497Z,3.17
2019-02-12T00:41:55.974Z,1.77
2019-02-12T00:44:24.422Z,3.03
2019-02-12T00:46:52.953Z,1.40
2019-02-12T00:49:21.404Z,1.00
2019-02-12T00:51:49.869Z,0.90
2019-02-12T00:54:18.365Z,1.33
2019-02-12T00:56:46.844Z,3.93
2019-02-12T00:59:15.360Z,1.07
2019-02-12T01:01:43.946Z,2.77
2019-02-12T01:04:12.434Z,1.93
2019-02-12T01:06:40.874Z,2.53
2019-02-12T01:09:09.451Z,2.30
2019-02-12T01:11:37.969Z,1.83
2019-02-12T01:14:06.514Z,1.07
2019-02-12T01:16:35.095Z,1.67
2019-02-12T01:19:03.549Z,8.03
2019-02-12T01:21:32.483Z,4.53
2019-02-12T01:24:00.997Z,4.03
2019-02-12T01:26:29.447Z,2.83
2019-02-12T01:28:57.946Z,0.47
2019-02-12T01:31:26.538Z,3.97
2019-02-12T01:33:55.092Z,3.43
2019-02-12T01:36:23.536Z,0.53
2019-02-12T01:38:54.844Z,0.63
2019-02-12T01:41:24.024Z,2.77
2019-02-12T01:43:52.472Z,2.57
2019-02-12T01:46:20.980Z,3.70
2019-02-12T01:48:49.505Z,1.53
2019-02-12T01:51:17.955Z,3.07
2019-02-12T01:53:46.461Z,1.47
2019-02-12T01:56:14.902Z,0.73
2019-02-12T01:58:43.367Z,0.87
2019-02-12T02:01:11.864Z,4.97
2019-02-12T02:03:40.394Z,1.10
2019-02-12T02:06:08.887Z,1.80
2019-02-12T02:08:37.405Z,6.33
2019-02-12T02:11:05.846Z,2.17
2019-02-12T02:13:34.308Z,1.67
2019-02-12T02:16:02.855Z,2.33
2019-02-12T02:18:31.305Z,1.57
2019-02-12T02:20:59.761Z,2.33
2019-02-12T02:23:28.614Z,2.83
2019-02-12T02:25:57.066Z,3.73
2019-02-12T02:28:25.562Z,4.40
2019-02-12T02:30:54.070Z,0.70
2019-02-12T02:33:22.522Z,2.93
2019-02-12T02:35:50.986Z,7.07
2019-02-12T02:38:19.474Z,6.53
2019-02-12T02:40:47.927Z,3.87
2019-02-12T02:43:16.414Z,1.93
2019-02-12T02:45:44.899Z,2.07
2019-02-12T02:48:13.382Z,3.20
2019-02-12T02:50:41.832Z,2.90
2019-02-12T02:53:10.336Z,2.80
2019-02-12T02:55:38.786Z,2.83
2019-02-12T02:58:07.292Z,7.73
2019-02-12T03:00:36.122Z,4.47
2019-02-12T03:03:04.576Z,3.73
2019-02-12T03:05:33.047Z,4.60
2019-02-12T03:08:01.570Z,7.37
2019-02-12T03:10:30.099Z,4.97
2019-02-12T03:12:58.585Z,3.63
2019-02-12T03:15:27.096Z,5.00
2019-02-12T03:17:55.544Z,3.90
2019-02-12T03:20:24.076Z,2.30
2019-02-12T03:22:52.586Z,5.53
2019-02-12T03:25:21.037Z,2.93
2019-02-12T03:27:49.496Z,3.70
2019-02-12T03:30:18.013Z,4.00
2019-02-12T03:32:46.474Z,4.80
2019-02-12T03:35:14.919Z,4.97
2019-02-12T03:37:43.468Z,7.07
2019-02-12T03:40:12.463Z,6.07
2019-02-12T03:42:40.906Z,6.07
2019-02-12T03:45:12.241Z,3.50
2019-02-12T03:47:41.686Z,2.47
2019-02-12T03:50:11.777Z,2.67
2019-02-12T03:52:40.450Z,5.50
2019-02-12T03:55:11.365Z,3.23
2019-02-12T03:57:39.883Z,9.57
2019-02-12T04:00:13.789Z,3.23
2019-02-12T04:03:02.426Z,5.63
2019-02-12T04:05:31.136Z,1.40
2019-02-12T04:07:59.654Z,5.70
2019-02-12T04:10:28.180Z,5.13
2019-02-12T04:12:57.550Z,4.67
2019-02-12T04:15:26.094Z,3.53
2019-02-12T04:17:55.450Z,2.63
2019-02-12T04:20:23.977Z,1.95
2019-02-12T04:22:52.440Z,3.90
2019-02-12T04:25:20.895Z,6.07
2019-02-12T04:27:49.454Z,2.53
2019-02-12T04:30:17.912Z,4.37
2019-02-12T04:32:46.372Z,3.73
2019-02-12T04:35:14.935Z,6.37
2019-02-12T04:37:43.372Z,1.67
2019-02-12T04:40:12.462Z,2.07
2019-02-12T04:42:40.990Z,2.00
2019-02-12T04:45:11.178Z,5.57
2019-02-12T04:47:39.706Z,3.63
2019-02-12T04:50:11.411Z,2.83
2019-02-12T04:52:39.863Z,2.07
2019-02-12T04:55:10.262Z,2.30
2019-02-12T04:57:38.770Z,3.20
2019-02-12T05:00:15.505Z,3.30
2019-02-12T05:02:44.082Z,8.93
2019-02-12T05:05:12.706Z,4.63
2019-02-12T05:07:41.161Z,3.13
2019-02-12T05:10:15.219Z,2.93
2019-02-12T05:12:43.720Z,2.87
2019-02-12T05:15:12.236Z,2.77
2019-02-12T05:17:40.749Z,3.10
2019-02-12T05:20:11.905Z,4.47
2019-02-12T05:22:43.464Z,1.00
2019-02-12T05:25:10.738Z,6.43
2019-02-12T05:27:39.273Z,2.83
2019-02-12T05:30:13.177Z,5.90
2019-02-12T05:32:41.702Z,4.77
2019-02-12T05:35:10.469Z,4.80
2019-02-12T05:37:38.927Z,2.83
2019-02-12T05:40:09.792Z,3.10
2019-02-12T05:42:38.334Z,2.10
2019-02-12T05:45:12.867Z,3.50
2019-02-12T05:47:41.455Z,2.83
2019-02-12T05:50:14.523Z,3.23
2019-02-12T05:52:53.383Z,7.97
2019-02-12T05:55:13.378Z,3.83
2019-02-12T05:57:41.884Z,7.33
2019-02-12T06:00:18.096Z,4.80
2019-02-12T06:02:46.603Z,2.43
2019-02-12T06:05:28.917Z,4.13
2019-02-12T06:07:57.816Z,4.20
2019-02-12T06:10:26.295Z,4.60
2019-02-12T06:12:54.751Z,1.10
2019-02-12T06:15:23.916Z,4.43
2019-02-12T06:17:52.373Z,4.33
2019-02-12T06:20:20.835Z,1.23
2019-02-12T06:22:49.358Z,2.53
2019-02-12T06:25:17.810Z,4.97
2019-02-12T06:27:46.414Z,1.93
2019-02-12T06:30:15.148Z,3.17
2019-02-12T06:32:44.183Z,1.80
2019-02-12T06:35:12.806Z,2.30
2019-02-12T06:37:41.356Z,3.50
2019-02-12T06:40:11.344Z,1.63
2019-02-12T06:42:39.897Z,4.43
2019-02-12T06:45:13.876Z,5.67
2019-02-12T06:47:42.361Z,4.93
2019-02-12T06:50:13.023Z,2.97
2019-02-12T06:52:41.605Z,1.40
2019-02-12T06:55:11.123Z,2.20
2019-02-12T06:57:39.717Z,1.47
2019-02-12T07:00:12.740Z,2.60
2019-02-12T07:02:59.350Z,2.50
2019-02-12T07:05:27.857Z,3.53
2019-02-12T07:08:11.247Z,5.10
2019-02-12T07:10:39.745Z,3.63
2019-02-12T07:13:20.121Z,3.10
2019-02-12T07:15:48.870Z,4.00
2019-02-12T07:18:41.074Z,3.53
2019-02-12T07:21:24.403Z,4.60
2019-02-12T07:24:01.922Z,2.43
2019-02-12T07:26:57.491Z,4.27
2019-02-12T07:29:37.548Z,1.40
2019-02-12T07:32:35.677Z,5.43
2019-02-12T07:35:22.209Z,6.20
2019-02-12T07:37:59.355Z,2.87
2019-02-12T07:40:55.005Z,5.27
2019-02-12T07:43:45.945Z,7.73
2019-02-12T07:46:28.814Z,3.53
2019-02-12T07:49:16.766Z,3.53
2019-02-12T07:51:50.854Z,4.43
2019-02-12T07:54:28.181Z,6.17
2019-02-12T07:57:14.530Z,3.03
2019-02-12T07:59:51.210Z,4.33
2019-02-12T08:02:45.555Z,3.50
2019-02-12T08:05:17.153Z,5.60
2019-02-12T08:07:48.807Z,5.10
2019-02-12T08:10:41.594Z,7.20
2019-02-12T08:13:37.296Z,3.60
2019-02-12T08:16:17.625Z,5.63
2019-02-12T08:19:00.957Z,4.00
2019-02-12T08:21:32.523Z,3.40
2019-02-12T08:24:20.252Z,2.90
2019-02-12T08:27:00.634Z,7.23
2019-02-12T08:29:37.650Z,4.37
2019-02-12T08:32:21.813Z,3.47
2019-02-12T08:35:11.481Z,7.03
2019-02-12T08:38:02.177Z,4.00
2019-02-12T08:40:33.695Z,2.87
2019-02-12T08:43:08.112Z,6.17
2019-02-12T08:45:48.569Z,4.20
2019-02-12T08:48:38.729Z,4.87
2019-02-12T08:51:28.208Z,3.50
2019-02-12T08:53:59.828Z,1.73
2019-02-12T08:56:34.214Z,4.63
2019-02-12T08:59:14.916Z,3.10
2019-02-12T09:01:58.363Z,5.13
2019-02-12T09:04:45.047Z,6.67
2019-02-12T09:07:22.027Z,3.27
2019-02-12T09:10:17.953Z,4.93
2019-02-12T09:13:11.795Z,4.17
2019-02-12T09:15:52.136Z,5.63
2019-02-12T09:18:29.183Z,2.97
2019-02-12T09:21:20.631Z,2.77
2019-02-12T09:24:00.420Z,3.13
2019-02-12T09:26:50.541Z,5.37
2019-02-12T09:29:25.070Z,3.87
2019-02-12T09:31:59.310Z,3.00
2019-02-12T09:34:33.864Z,5.80
2019-02-12T09:37:11.652Z,3.37
2019-02-12T09:39:46.228Z,4.37
2019-02-12T09:42:32.619Z,6.33
2019-02-12T09:45:07.027Z,1.47
2019-02-12T09:47:41.306Z,3.30
2019-02-12T09:50:38.550Z,2.77
2019-02-12T09:53:15.837Z,5.87
2019-02-12T09:55:56.254Z,8.63
2019-02-12T09:58:30.545Z,4.57
2019-02-12T10:01:16.712Z,2.77
2019-02-12T10:04:09.513Z,3.93
2019-02-12T10:07:01.866Z,4.23
2019-02-12T10:09:33.441Z,4.73
2019-02-12T10:12:22.499Z,3.50
2019-02-12T10:14:57.224Z,1.60
2019-02-12T10:17:43.802Z,4.80
2019-02-12T10:20:21.069Z,5.13
2019-02-12T10:23:10.724Z,4.17
2019-02-12T10:25:39.286Z,3.60
2019-02-12T10:28:13.702Z,2.63
2019-02-12T10:30:57.182Z,1.90
2019-02-12T10:33:25.650Z,4.93
2019-02-12T10:35:54.139Z,3.73
2019-02-12T10:38:22.690Z,3.37
2019-02-12T10:40:51.378Z,2.80
2019-02-12T10:43:19.855Z,3.80
2019-02-12T10:45:48.444Z,3.20
2019-02-12T10:48:18.042Z,2.77
2019-02-12T10:50:46.765Z,3.90
2019-02-12T10:53:15.324Z,4.10
2019-02-12T10:55:43.820Z,4.00
2019-02-12T10:58:12.322Z,4.87
2019-02-12T11:00:40.975Z,5.83
2019-02-12T11:03:09.478Z,3.50
2019-02-12T11:05:37.931Z,5.20
2019-02-12T11:08:06.439Z,3.40
2019-02-12T11:10:34.902Z,4.40
2019-02-12T11:13:03.349Z,5.43
2019-02-12T11:15:31.945Z,4.63
2019-02-12T11:18:00.462Z,4.27
2019-02-12T11:20:28.965Z,3.80
2019-02-12T11:22:57.496Z,3.57
2019-02-12T11:25:27.003Z,2.77
2019-02-12T11:27:55.469Z,4.87
2019-02-12T11:30:24.043Z,2.40
2019-02-12T11:32:52.494Z,2.47
2019-02-12T11:35:20.957Z,4.43
2019-02-12T11:37:49.533Z,5.73
2019-02-12T11:40:17.998Z,6.30
2019-02-12T11:42:47.358Z,5.80
2019-02-12T11:45:16.045Z,3.40
2019-02-12T11:47:44.494Z,5.23
2019-02-12T11:50:13.013Z,2.33
2019-02-12T11:52:41.579Z,2.50
2019-02-12T11:55:12.483Z,3.77
2019-02-12T11:57:40.934Z,3.20
2019-02-12T12:00:18.175Z,3.47
2019-02-12T12:02:46.625Z,3.40
2019-02-12T12:05:15.210Z,5.40
2019-02-12T12:07:43.672Z,4.63
2019-02-12T12:10:12.513Z,3.93
2019-02-12T12:12:40.984Z,1.43
2019-02-12T12:15:14.728Z,3.27
2019-02-12T12:17:43.202Z,3.33
2019-02-12T12:20:13.281Z,3.67
2019-02-12T12:22:41.847Z,1.93
2019-02-12T12:25:11.693Z,3.67
2019-02-12T12:27:40.165Z,5.40
2019-02-12T12:30:11.407Z,3.90
2019-02-12T12:32:39.864Z,4.67
2019-02-12T12:35:10.931Z,2.27
2019-02-12T12:37:39.600Z,5.03
2019-02-12T12:40:11.104Z,6.93
2019-02-12T12:42:39.568Z,1.90
2019-02-12T12:45:13.353Z,4.27
2019-02-12T12:47:41.805Z,2.60
2019-02-12T12:50:11.700Z,5.30
2019-02-12T12:52:40.226Z,4.50
2019-02-12T12:55:09.929Z,4.33
2019-02-12T12:57:41.840Z,3.27
2019-02-12T13:00:16.938Z,4.00
2019-02-12T13:02:45.399Z,5.27
2019-02-12T13:05:14.018Z,4.17
2019-02-12T13:07:42.587Z,4.03
2019-02-12T13:10:13.307Z,4.87
2019-02-12T13:12:41.830Z,5.23
2019-02-12T13:15:12.478Z,5.50
2019-02-12T13:17:40.928Z,4.77
2019-02-12T13:20:17.474Z,3.13
2019-02-12T13:22:46.009Z,5.87
2019-02-12T13:25:14.462Z,5.40
2019-02-12T13:27:43.045Z,5.83
2019-02-12T13:30:18.766Z,3.23
2019-02-12T13:32:47.293Z,4.13
2019-02-12T13:35:16.012Z,6.07
2019-02-12T13:37:44.462Z,3.60
2019-02-12T13:40:13.686Z,4.70
2019-02-12T13:42:42.300Z,3.87
2019-02-12T13:45:16.479Z,8.00
2019-02-12T13:47:45.837Z,3.10
2019-02-12T13:50:14.596Z,4.97
2019-02-12T13:52:43.058Z,4.40
2019-02-12T13:55:17.522Z,4.43
2019-02-12T13:57:42.513Z,3.40
2019-02-12T14:00:14.145Z,3.20
2019-02-12T14:02:42.635Z,4.63
2019-02-12T14:05:16.858Z,2.37
2019-02-12T14:07:45.395Z,3.80
2019-02-12T14:10:14.337Z,3.33
2019-02-12T14:12:42.845Z,5.67
2019-02-12T14:15:14.737Z,7.40
2019-02-12T14:17:43.259Z,5.13
2019-02-12T14:20:18.443Z,7.30
2019-02-12T14:22:46.894Z,6.03
2019-02-12T14:25:16.292Z,4.87
2019-02-12T14:27:44.882Z,4.77
2019-02-12T14:30:15.087Z,3.23
2019-02-12T14:32:43.824Z,4.50
2019-02-12T14:35:12.905Z,5.63
2019-02-12T14:37:41.360Z,4.20
2019-02-12T14:40:16.609Z,3.77
2019-02-12T14:42:45.113Z,3.67
2019-02-12T14:45:18.890Z,4.77
2019-02-12T14:47:47.407Z,3.00
2019-02-12T14:50:18.029Z,3.83
2019-02-12T14:52:46.555Z,4.97
2019-02-12T14:55:15.041Z,11.67
2019-02-12T14:57:43.560Z,4.07
2019-02-12T15:00:15.002Z,4.93
2019-02-12T15:02:43.470Z,4.67
2019-02-12T15:05:12.155Z,4.23
2019-02-12T15:07:40.609Z,4.73
2019-02-12T15:10:13.945Z,6.23
2019-02-12T15:12:43.451Z,4.07
2019-02-12T15:15:12.440Z,5.40
2019-02-12T15:17:41.102Z,6.53
2019-02-12T15:20:13.363Z,3.87
2019-02-12T15:22:41.961Z,6.77
2019-02-12T15:25:14.913Z,5.37
2019-02-12T15:27:43.482Z,4.80
2019-02-12T15:30:17.709Z,5.77
2019-02-12T15:32:46.273Z,6.00
2019-02-12T15:35:14.874Z,7.50
2019-02-12T15:37:43.324Z,4.13
2019-02-12T15:40:17.051Z,7.07
2019-02-12T15:42:45.578Z,9.47
2019-02-12T15:45:22.718Z,7.33
2019-02-12T15:47:51.220Z,7.27
2019-02-12T15:50:19.985Z,6.93
2019-02-12T15:52:48.578Z,7.07
2019-02-12T15:55:17.173Z,6.83
2019-02-12T15:57:46.078Z,5.73
2019-02-12T16:00:20.616Z,8.23
2019-02-12T16:02:48.832Z,4.63
2019-02-12T16:05:17.538Z,5.30
2019-02-12T16:07:47.443Z,6.60
2019-02-12T16:10:20.663Z,4.60
2019-02-12T16:12:51.277Z,5.63
2019-02-12T16:15:22.340Z,6.93
2019-02-12T16:17:50.849Z,8.67
2019-02-12T16:20:19.395Z,9.50
2019-02-12T16:22:47.889Z,11.63
2019-02-12T16:25:16.507Z,15.33
2019-02-12T16:27:45.097Z,5.90
2019-02-12T16:30:21.307Z,8.40
2019-02-12T16:32:49.831Z,8.57
2019-02-12T16:35:18.749Z,9.20
2019-02-12T16:37:47.297Z,8.53
2019-02-12T16:40:17.872Z,6.67
2019-02-12T16:42:46.405Z,7.70
2019-02-12T16:45:33.177Z,7.03
2019-02-12T16:48:01.701Z,5.83
2019-02-12T16:50:30.296Z,9.40
2019-02-12T16:52:58.894Z,8.73
2019-02-12T16:55:27.465Z,5.63
2019-02-12T16:57:55.984Z,6.37
2019-02-12T17:00:24.509Z,6.53
2019-02-12T17:02:52.958Z,5.47
2019-02-12T17:05:21.411Z,5.73
2019-02-12T17:07:50.023Z,9.47
2019-02-12T17:10:18.629Z,7.13
2019-02-12T17:12:47.701Z,5.60
2019-02-12T17:15:16.348Z,5.87
2019-02-12T17:17:45.966Z,7.93
2019-02-12T17:20:19.279Z,7.27
2019-02-12T17:22:47.873Z,7.47
2019-02-12T17:25:17.030Z,10.03
2019-02-12T17:27:45.662Z,7.50
2019-02-12T17:30:16.237Z,6.47
2019-02-12T17:32:45.669Z,7.57
2019-02-12T17:35:15.258Z,6.63
2019-02-12T17:37:43.758Z,10.60
2019-02-12T17:40:14.922Z,10.43
2019-02-12T17:42:44.052Z,8.53
2019-02-12T17:45:14.458Z,7.90
2019-02-12T17:47:43.792Z,8.33
2019-02-12T17:50:13.867Z,9.77
2019-02-12T17:52:43.251Z,9.70
2019-02-12T17:55:12.275Z,11.20
2019-02-12T17:57:41.493Z,9.50
2019-02-12T18:00:20.087Z,8.53
2019-02-12T18:02:50.142Z,8.70
2019-02-12T18:05:18.623Z,11.67
2019-02-12T18:07:47.786Z,6.50
2019-02-12T18:10:16.255Z,9.03
2019-02-12T18:12:45.523Z,8.67
2019-02-12T18:15:15.120Z,7.47
2019-02-12T18:17:44.479Z,8.67
2019-02-12T18:20:21.093Z,8.67
2019-02-12T18:22:48.455Z,8.07
2019-02-12T18:25:17.559Z,6.67
2019-02-12T18:27:46.778Z,8.33
2019-02-12T18:30:16.780Z,6.77
2019-02-12T18:32:45.443Z,5.17
2019-02-12T18:35:14.556Z,6.40
2019-02-12T18:37:44.001Z,6.53
2019-02-12T18:40:14.834Z,10.17
2019-02-12T18:42:44.033Z,7.23
2019-02-12T18:45:18.402Z,7.03
2019-02-12T18:47:47.586Z,9.53
2019-02-12T18:50:16.782Z,7.17
2019-02-12T18:52:46.113Z,8.87
2019-02-12T18:55:16.422Z,7.77
2019-02-12T18:57:45.605Z,8.10
2019-02-12T19:00:23.057Z,6.07
2019-02-12T19:02:52.195Z,10.30
2019-02-12T19:05:21.385Z,8.27
2019-02-12T19:07:50.567Z,7.63
2019-02-12T19:10:20.101Z,6.73
2019-02-12T19:12:49.227Z,7.47
2019-02-12T19:15:19.975Z,6.80
2019-02-12T19:17:55.038Z,8.50
2019-02-12T19:20:24.187Z,7.93
2019-02-12T19:22:53.407Z,9.33
2019-02-12T19:25:22.537Z,8.43
2019-02-12T19:27:51.694Z,10.57
2019-02-12T19:30:20.901Z,9.27
2019-02-12T19:32:50.038Z,9.80
2019-02-12T19:35:19.279Z,9.70
2019-02-12T19:37:48.485Z,10.53
2019-02-12T19:40:17.724Z,10.10
2019-02-12T19:42:46.869Z,9.53
2019-02-12T19:45:19.149Z,9.70
2019-02-12T19:47:48.276Z,8.90
2019-02-12T19:50:17.442Z,10.07
2019-02-12T19:52:46.702Z,9.17
2019-02-12T19:55:15.901Z,7.23
2019-02-12T19:57:45.058Z,8.60
2019-02-12T20:00:17.426Z,8.27
2019-02-12T20:02:46.798Z,6.57
2019-02-12T20:05:15.990Z,7.20
2019-02-12T20:07:45.251Z,5.97
2019-02-12T20:10:15.421Z,10.77
2019-02-12T20:12:44.554Z,8.03
2019-02-12T20:15:21.346Z,8.93
2019-02-12T20:17:50.548Z,7.50
2019-02-12T20:20:19.688Z,7.37
2019-02-12T20:22:48.861Z,8.13
2019-02-12T20:25:18.114Z,6.27
2019-02-12T20:27:47.253Z,4.43
2019-02-12T20:30:19.990Z,4.67
2019-02-12T20:32:49.135Z,6.57
2019-02-12T20:35:20.954Z,7.07
2019-02-12T20:37:50.803Z,5.27
2019-02-12T20:40:19.966Z,4.07
2019-02-12T20:42:49.136Z,6.80
2019-02-12T20:45:19.432Z,8.80
2019-02-12T20:47:48.593Z,6.83
2019-02-12T20:50:21.444Z,9.07
2019-02-12T20:52:50.649Z,5.77
2019-02-12T20:55:19.879Z,7.67
2019-02-12T20:57:49.023Z,5.93
2019-02-12T21:00:23.575Z,6.00
2019-02-12T21:02:52.735Z,6.97
2019-02-12T21:05:21.978Z,7.90
2019-02-12T21:07:51.268Z,4.33
2019-02-12T21:10:22.623Z,6.45
2019-02-12T21:12:51.761Z,4.43
2019-02-12T21:15:29.996Z,8.87
2019-02-12T21:17:59.141Z,5.70
2019-02-12T21:20:28.273Z,6.17
2019-02-12T21:22:57.915Z,5.13
2019-02-12T21:25:28.034Z,10.20
2019-02-12T21:27:57.300Z,3.67
2019-02-12T21:30:29.613Z,5.57
2019-02-12T21:33:00.422Z,7.10
2019-02-12T21:35:29.571Z,8.13
2019-02-12T21:37:59.604Z,9.07
2019-02-12T21:40:29.084Z,10.90
2019-02-12T21:42:58.263Z,5.17
2019-02-12T21:45:27.348Z,6.30
2019-02-12T21:47:56.581Z,6.17
2019-02-12T21:50:25.708Z,8.27
2019-02-12T21:52:54.861Z,5.83
2019-02-12T21:55:24.061Z,6.17
2019-02-12T21:57:53.270Z,5.60
2019-02-12T22:00:23.144Z,7.97
2019-02-12T22:02:53.110Z,5.80
2019-02-12T22:05:22.239Z,7.63
2019-02-12T22:07:51.467Z,6.07
2019-02-12T22:10:22.745Z,7.00
2019-02-12T22:12:51.959Z,10.27
2019-02-12T22:15:21.099Z,14.03
2019-02-12T22:17:50.425Z,15.50
2019-02-12T22:20:21.030Z,20.10
2019-02-12T22:22:50.210Z,15.90
2019-02-12T22:25:19.550Z,22.37
2019-02-12T22:27:48.872Z,20.93
2019-02-12T22:30:20.230Z,23.33
2019-02-12T22:32:51.553Z,24.37
2019-02-12T22:35:20.826Z,18.37
2019-02-12T22:37:50.034Z,24.70
2019-02-12T22:40:19.648Z,20.07
2019-02-12T22:42:48.863Z,20.90
2019-02-12T22:45:21.295Z,22.10
2019-02-12T22:47:50.568Z,19.67
2019-02-12T22:50:19.791Z,19.03
2019-02-12T22:52:49.023Z,21.67
2019-02-12T22:55:18.313Z,21.50
2019-02-12T22:57:49.500Z,16.97
2019-02-12T23:00:25.857Z,17.50
2019-02-12T23:02:55.102Z,17.27
2019-02-12T23:05:24.307Z,13.13
2019-02-12T23:07:53.556Z,18.67
2019-02-12T23:10:22.844Z,17.97
2019-02-12T23:12:52.074Z,15.33
2019-02-12T23:15:21.341Z,17.37
2019-02-12T23:17:50.546Z,11.40
2019-02-12T23:20:19.744Z,11.50
2019-02-12T23:22:49.025Z,14.40
2019-02-12T23:25:18.218Z,16.60
2019-02-12T23:27:47.423Z,17.73
2019-02-12T23:30:16.916Z,9.67
2019-02-12T23:32:46.191Z,14.57
2019-02-12T23:35:15.635Z,19.17
2019-02-12T23:37:44.888Z,18.03
2019-02-12T23:40:14.553Z,15.47
2019-02-12T23:42:43.763Z,14.97
2019-02-12T23:45:13.330Z,16.50
2019-02-12T23:47:42.512Z,13.87
2019-02-12T23:50:11.791Z,14.23
2019-02-12T23:52:41.016Z,19.27
2019-02-12T23:55:10.214Z,13.73
2019-02-12T23:57:39.456Z,14.37
